createdAt,value
2023-04-24T00:00:46.440Z,1.35
2023-04-24T00:03:16.803Z,1.25
2023-04-24T00:05:47.026Z,1.63
2023-04-24T00:08:19.201Z,1.50
2023-04-24T00:10:49.663Z,1.40
2023-04-24T00:13:19.615Z,1.30
2023-04-24T00:15:50.001Z,1.60
2023-04-24T00:18:20.496Z,1.60
2023-04-24T00:20:50.838Z,1.48
2023-04-24T00:23:22.690Z,1.40
2023-04-24T00:25:52.849Z,1.40
2023-04-24T00:28:23.115Z,1.75
2023-04-24T00:30:53.192Z,1.67
2023-04-24T00:33:23.917Z,1.70
2023-04-24T00:35:53.518Z,1.65
2023-04-24T00:38:25.266Z,1.77
2023-04-24T00:40:55.410Z,1.50
2023-04-24T00:43:26.107Z,1.50
2023-04-24T00:45:56.419Z,1.60
2023-04-24T00:48:28.721Z,1.52
2023-04-24T00:51:00.142Z,1.50
2023-04-24T00:53:31.829Z,1.83
2023-04-24T00:56:03.089Z,1.70
2023-04-24T00:58:34.025Z,1.70
2023-04-24T01:01:04.044Z,1.65
2023-04-24T01:03:34.871Z,1.83
2023-04-24T01:06:04.796Z,1.73
2023-04-24T01:08:39.301Z,1.70
2023-04-24T01:11:09.217Z,1.65
2023-04-24T01:13:39.538Z,1.80
2023-04-24T01:16:09.336Z,1.80
2023-04-24T01:18:39.995Z,1.83
2023-04-24T01:21:12.356Z,2.00
2023-04-24T01:23:44.419Z,1.70
2023-04-24T01:26:15.643Z,1.70
2023-04-24T01:28:46.432Z,2.47
2023-04-24T01:31:17.102Z,2.03
2023-04-24T01:33:47.385Z,1.88
2023-04-24T01:36:19.736Z,1.92
2023-04-24T01:38:51.388Z,2.13
2023-04-24T01:41:22.042Z,2.03
2023-04-24T01:43:53.067Z,1.85
2023-04-24T01:46:23.684Z,2.03
2023-04-24T01:48:55.126Z,2.10
2023-04-24T01:51:25.364Z,2.17
2023-04-24T01:53:56.843Z,1.95
2023-04-24T01:56:27.885Z,2.03
2023-04-24T01:58:59.471Z,1.98
2023-04-24T02:01:29.241Z,2.78
2023-04-24T02:03:59.498Z,2.05
2023-04-24T02:06:29.525Z,2.00
2023-04-24T02:09:01.620Z,2.05
2023-04-24T02:11:31.708Z,2.20
2023-04-24T02:14:01.666Z,2.30
2023-04-24T02:16:34.363Z,2.33
2023-04-24T02:19:04.605Z,2.03
2023-04-24T02:21:34.631Z,1.95
2023-04-24T02:24:06.970Z,2.20
2023-04-24T02:26:37.209Z,2.30
2023-04-24T02:29:06.876Z,2.28
2023-04-24T02:31:37.248Z,2.05
2023-04-24T02:34:07.321Z,2.00
2023-04-24T02:36:37.533Z,2.10
2023-04-24T02:39:09.665Z,1.85
2023-04-24T02:41:39.785Z,1.98
2023-04-24T02:44:09.983Z,2.30
2023-04-24T02:46:39.851Z,2.05
2023-04-24T02:49:10.216Z,2.17
2023-04-24T02:51:42.431Z,2.30
2023-04-24T02:54:14.413Z,1.90
2023-04-24T02:56:44.716Z,1.92
2023-04-24T02:59:14.644Z,2.17
2023-04-24T03:01:44.854Z,2.30
2023-04-24T03:04:15.098Z,2.38
2023-04-24T03:06:44.874Z,2.30
2023-04-24T03:09:16.493Z,2.17
2023-04-24T03:11:46.695Z,2.33
2023-04-24T03:14:16.796Z,2.28
2023-04-24T03:16:47.256Z,2.15
2023-04-24T03:19:16.993Z,2.35
2023-04-24T03:21:47.779Z,2.17
2023-04-24T03:24:20.036Z,2.00
2023-04-24T03:26:50.076Z,2.30
2023-04-24T03:29:20.112Z,1.83
2023-04-24T03:31:50.422Z,2.08
2023-04-24T03:34:20.754Z,2.22
2023-04-24T03:36:50.970Z,2.03
2023-04-24T03:39:22.707Z,2.72
2023-04-24T03:41:52.975Z,2.58
2023-04-24T03:44:23.149Z,2.45
2023-04-24T03:46:53.327Z,2.08
2023-04-24T03:49:23.338Z,2.15
2023-04-24T03:51:53.926Z,2.03
2023-04-24T03:54:25.909Z,2.50
2023-04-24T03:56:56.279Z,2.42
2023-04-24T03:59:25.838Z,2.47
2023-04-24T04:01:56.300Z,1.98
2023-04-24T04:04:26.622Z,2.10
2023-04-24T04:06:57.122Z,2.35
2023-04-24T04:09:28.109Z,2.17
2023-04-24T04:11:58.167Z,2.10
2023-04-24T04:14:28.611Z,2.00
2023-04-24T04:16:58.941Z,2.70
2023-04-24T04:19:29.200Z,2.25
2023-04-24T04:21:59.323Z,3.05
2023-04-24T04:24:31.536Z,2.30
2023-04-24T04:27:01.928Z,2.25
2023-04-24T04:29:32.751Z,2.10
2023-04-24T04:32:04.087Z,2.20
2023-04-24T04:34:34.726Z,2.20
2023-04-24T04:37:05.113Z,2.22
2023-04-24T04:39:36.784Z,2.03
2023-04-24T04:42:08.167Z,2.63
2023-04-24T04:44:39.917Z,2.30
2023-04-24T04:47:10.442Z,1.88
2023-04-24T04:49:41.475Z,1.90
2023-04-24T04:52:11.362Z,1.80
2023-04-24T04:54:43.397Z,1.80
2023-04-24T04:57:13.473Z,2.10
2023-04-24T04:59:44.350Z,1.70
2023-04-24T05:02:14.898Z,1.70
2023-04-24T05:04:44.545Z,1.75
2023-04-24T05:07:14.388Z,1.73
2023-04-24T05:09:46.535Z,1.60
2023-04-24T05:12:16.562Z,1.50
2023-04-24T05:14:46.822Z,1.20
2023-04-24T05:17:17.013Z,0.82
2023-04-24T05:19:47.861Z,0.98
2023-04-24T05:22:19.067Z,1.13
2023-04-24T05:24:51.198Z,1.50
2023-04-24T05:27:21.245Z,1.23
2023-04-24T05:29:51.500Z,1.60
2023-04-24T05:32:21.415Z,1.02
2023-04-24T05:34:51.705Z,1.25
2023-04-24T05:37:21.447Z,1.35
2023-04-24T05:39:53.102Z,1.05
2023-04-24T05:42:23.209Z,1.10
2023-04-24T05:44:57.397Z,1.08
2023-04-24T05:47:28.385Z,1.10
2023-04-24T05:49:58.859Z,0.90
2023-04-24T05:52:28.744Z,1.05
2023-04-24T05:55:00.257Z,1.13
2023-04-24T05:57:30.387Z,1.77
2023-04-24T06:00:00.277Z,1.15
2023-04-24T06:02:34.021Z,0.95
2023-04-24T06:05:04.687Z,1.33
2023-04-24T06:07:35.943Z,1.00
2023-04-24T06:10:09.423Z,1.00
2023-04-24T06:12:39.342Z,1.27
2023-04-24T06:15:11.269Z,1.30
2023-04-24T06:17:41.557Z,1.40
2023-04-24T06:20:12.797Z,1.27
2023-04-24T06:22:43.296Z,0.98
2023-04-24T06:25:15.921Z,0.85
2023-04-24T06:27:45.991Z,1.35
2023-04-24T06:30:15.969Z,1.00
2023-04-24T06:32:46.557Z,1.10
2023-04-24T06:35:16.741Z,1.13
2023-04-24T06:37:47.360Z,0.70
2023-04-24T06:40:19.986Z,0.80
2023-04-24T06:42:49.626Z,0.73
2023-04-24T06:45:20.145Z,0.85
2023-04-24T06:47:50.581Z,0.63
2023-04-24T06:50:21.017Z,0.70
2023-04-24T06:52:50.769Z,0.80
2023-04-24T06:55:22.524Z,0.77
2023-04-24T06:57:52.836Z,0.73
2023-04-24T07:00:25.593Z,0.70
2023-04-24T07:02:55.640Z,0.55
2023-04-24T07:05:26.174Z,0.73
2023-04-24T07:07:56.444Z,0.88
2023-04-24T07:10:30.105Z,0.75
2023-04-24T07:12:59.971Z,0.85
2023-04-24T07:15:30.084Z,0.55
2023-04-24T07:18:01.239Z,0.80
2023-04-24T07:20:31.835Z,0.65
2023-04-24T07:23:02.040Z,0.70
2023-04-24T07:25:34.350Z,0.80
2023-04-24T07:28:05.928Z,0.80
2023-04-24T07:30:36.035Z,1.02
2023-04-24T07:33:05.858Z,0.90
2023-04-24T07:35:37.609Z,0.95
2023-04-24T07:38:07.820Z,1.00
2023-04-24T07:40:40.002Z,0.80
2023-04-24T07:43:09.863Z,1.23
2023-04-24T07:45:42.752Z,0.88
2023-04-24T07:48:13.322Z,1.13
2023-04-24T07:50:43.461Z,1.40
2023-04-24T07:53:13.740Z,1.52
2023-04-24T07:55:45.778Z,1.02
2023-04-24T07:58:16.622Z,1.40
2023-04-24T08:00:46.427Z,1.15
2023-04-24T08:03:19.886Z,1.08
2023-04-24T08:05:52.832Z,0.70
2023-04-24T08:08:25.645Z,1.30
2023-04-24T08:10:58.146Z,1.23
2023-04-24T08:13:28.497Z,1.00
2023-04-24T08:15:59.917Z,1.17
2023-04-24T08:18:30.219Z,0.85
2023-04-24T08:21:02.745Z,1.70
2023-04-24T08:23:32.991Z,1.17
2023-04-24T08:26:05.062Z,1.00
2023-04-24T08:28:35.121Z,1.00
2023-04-24T08:31:05.267Z,1.08
2023-04-24T08:33:36.314Z,1.20
2023-04-24T08:36:07.665Z,1.23
2023-04-24T08:38:38.367Z,1.35
2023-04-24T08:41:12.389Z,1.20
2023-04-24T08:43:43.959Z,1.38
2023-04-24T08:46:16.865Z,1.17
2023-04-24T08:48:47.649Z,1.52
2023-04-24T08:51:18.463Z,1.25
2023-04-24T08:53:49.884Z,1.52
2023-04-24T08:56:23.123Z,1.30
2023-04-24T08:58:54.909Z,1.13
2023-04-24T09:01:28.424Z,1.10
2023-04-24T09:03:59.759Z,1.08
2023-04-24T09:06:30.401Z,0.70
2023-04-24T09:09:03.529Z,0.82
2023-04-24T09:11:35.972Z,0.70
2023-04-24T09:14:06.961Z,0.95
2023-04-24T09:16:37.432Z,0.50
2023-04-24T09:19:07.607Z,0.60
2023-04-24T09:21:39.312Z,0.63
2023-04-24T09:24:18.953Z,0.80
2023-04-24T09:26:50.480Z,0.70
2023-04-24T09:29:21.889Z,0.45
2023-04-24T09:31:52.172Z,0.50
2023-04-24T09:34:27.143Z,0.40
2023-04-24T09:36:58.512Z,0.60
2023-04-24T09:39:28.469Z,0.70
2023-04-24T09:42:02.061Z,0.45
2023-04-24T09:44:33.552Z,0.40
2023-04-24T09:47:04.161Z,0.60
2023-04-24T09:49:34.803Z,0.40
2023-04-24T09:52:09.206Z,0.55
2023-04-24T09:54:39.959Z,0.47
2023-04-24T09:57:11.810Z,0.60
2023-04-24T09:59:49.480Z,0.50
2023-04-24T10:02:23.635Z,0.50
2023-04-24T10:05:01.327Z,0.50
2023-04-24T10:07:31.343Z,0.52
2023-04-24T10:10:02.897Z,0.50
2023-04-24T10:12:34.913Z,0.28
2023-04-24T10:15:07.205Z,0.40
2023-04-24T10:17:38.578Z,0.40
2023-04-24T10:20:10.989Z,0.60
2023-04-24T10:22:41.756Z,0.43
2023-04-24T10:25:12.862Z,0.35
2023-04-24T10:27:45.053Z,0.55
2023-04-24T10:30:17.663Z,0.40
2023-04-24T10:32:48.064Z,0.40
2023-04-24T10:35:23.747Z,0.40
2023-04-24T10:38:00.471Z,0.47
2023-04-24T10:40:35.851Z,0.55
2023-04-24T10:43:11.073Z,0.20
2023-04-24T10:45:42.128Z,0.28
2023-04-24T10:48:15.300Z,0.30
2023-04-24T10:50:51.219Z,0.40
2023-04-24T10:53:24.719Z,0.30
2023-04-24T10:56:01.116Z,0.22
2023-04-24T10:58:46.322Z,0.47
2023-04-24T11:01:29.610Z,0.38
2023-04-24T11:04:01.992Z,0.40
2023-04-24T11:06:37.246Z,0.43
2023-04-24T11:09:09.835Z,0.30
2023-04-24T11:11:43.076Z,0.57
2023-04-24T11:14:18.074Z,0.40
2023-04-24T11:16:55.542Z,1.65
2023-04-24T11:19:27.925Z,0.40
2023-04-24T11:22:03.372Z,0.50
2023-04-24T11:24:40.547Z,0.13
2023-04-24T11:27:18.602Z,0.22
2023-04-24T11:29:53.106Z,0.57
2023-04-24T11:32:32.060Z,0.50
2023-04-24T11:35:04.860Z,0.55
2023-04-24T11:37:40.032Z,0.30
2023-04-24T11:40:13.650Z,0.50
2023-04-24T11:42:45.537Z,0.50
2023-04-24T11:45:21.850Z,0.30
2023-04-24T11:47:52.176Z,0.38
2023-04-24T11:50:29.146Z,0.40
2023-04-24T11:53:01.702Z,0.50
2023-04-24T11:55:32.652Z,0.40
2023-04-24T11:58:03.059Z,0.30
2023-04-24T12:00:36.930Z,0.50
2023-04-24T12:03:11.705Z,0.38
2023-04-24T12:05:42.752Z,0.50
2023-04-24T12:08:12.984Z,0.60
2023-04-24T12:10:43.403Z,0.52
2023-04-24T12:13:14.406Z,0.50
2023-04-24T12:15:46.754Z,0.38
2023-04-24T12:18:23.528Z,0.60
2023-04-24T12:20:53.894Z,0.60
2023-04-24T12:23:38.677Z,0.50
2023-04-24T12:26:09.312Z,1.60
2023-04-24T12:28:40.273Z,0.50
2023-04-24T12:31:12.913Z,0.50
2023-04-24T12:33:42.707Z,0.40
2023-04-24T12:36:17.405Z,0.45
2023-04-24T12:38:47.965Z,0.40
2023-04-24T12:41:19.858Z,0.40
2023-04-24T12:43:57.472Z,0.60
2023-04-24T12:46:29.353Z,0.47
2023-04-24T12:48:59.978Z,0.40
2023-04-24T12:51:29.851Z,0.70
2023-04-24T12:54:00.877Z,0.60
2023-04-24T12:56:32.159Z,0.40
2023-04-24T12:59:02.344Z,0.47
2023-04-24T13:01:34.184Z,0.30
2023-04-24T13:04:04.544Z,0.50
2023-04-24T13:06:34.655Z,0.50
2023-04-24T13:09:05.089Z,0.40
2023-04-24T13:11:34.911Z,0.30
2023-04-24T13:14:04.898Z,0.60
2023-04-24T13:16:36.521Z,0.60
2023-04-24T13:19:07.475Z,0.57
2023-04-24T13:21:37.096Z,0.60
2023-04-24T13:24:09.110Z,0.43
2023-04-24T13:26:39.192Z,0.45
2023-04-24T13:29:09.381Z,0.55
2023-04-24T13:31:41.730Z,0.55
2023-04-24T13:34:12.168Z,0.50
2023-04-24T13:36:42.308Z,0.40
2023-04-24T13:39:12.662Z,0.30
2023-04-24T13:41:43.436Z,0.82
2023-04-24T13:44:13.347Z,1.15
2023-04-24T13:46:46.148Z,0.30
2023-04-24T13:49:17.692Z,0.57
2023-04-24T13:51:48.737Z,0.35
2023-04-24T13:54:19.048Z,0.32
2023-04-24T13:56:48.931Z,0.40
2023-04-24T13:59:19.117Z,0.50
2023-04-24T14:01:51.030Z,0.40
2023-04-24T14:04:21.288Z,0.40
2023-04-24T14:06:51.947Z,0.30
2023-04-24T14:09:22.173Z,0.40
2023-04-24T14:11:52.048Z,0.47
2023-04-24T14:14:22.673Z,0.20
2023-04-24T14:16:54.952Z,0.38
2023-04-24T14:19:25.244Z,0.38
2023-04-24T14:21:57.031Z,0.40
2023-04-24T14:24:27.167Z,0.43
2023-04-24T14:26:57.823Z,0.50
2023-04-24T14:29:27.388Z,0.70
2023-04-24T14:31:59.367Z,0.30
2023-04-24T14:34:29.703Z,0.30
2023-04-24T14:37:00.374Z,0.40
2023-04-24T14:39:31.917Z,0.30
2023-04-24T14:42:02.431Z,0.40
2023-04-24T14:44:32.430Z,0.43
2023-04-24T14:47:05.111Z,0.30
2023-04-24T14:49:35.564Z,0.52
2023-04-24T14:52:05.495Z,0.50
2023-04-24T14:54:35.306Z,0.35
2023-04-24T14:57:05.600Z,0.40
2023-04-24T14:59:36.041Z,0.50
2023-04-24T15:02:15.400Z,0.38
2023-04-24T15:04:47.149Z,0.43
2023-04-24T15:07:17.701Z,0.60
2023-04-24T15:09:48.451Z,0.35
2023-04-24T15:12:18.865Z,0.88
2023-04-24T15:14:48.971Z,0.50
2023-04-24T15:17:20.666Z,0.40
2023-04-24T15:19:50.839Z,0.60
2023-04-24T15:22:21.446Z,0.50
2023-04-24T15:24:51.471Z,0.50
2023-04-24T15:27:21.856Z,0.68
2023-04-24T15:29:52.159Z,0.50
2023-04-24T15:32:24.403Z,0.60
2023-04-24T15:35:07.043Z,0.47
2023-04-24T15:37:38.783Z,1.48
2023-04-24T15:40:11.808Z,0.43
2023-04-24T15:42:41.584Z,0.50
2023-04-24T15:45:13.089Z,0.82
2023-04-24T15:47:44.968Z,0.73
2023-04-24T15:50:17.436Z,0.50
2023-04-24T15:52:48.929Z,0.43
2023-04-24T15:55:19.466Z,0.65
2023-04-24T15:57:50.105Z,0.60
2023-04-24T16:00:21.789Z,0.50
2023-04-24T16:02:54.100Z,0.50
2023-04-24T16:05:25.037Z,0.50
2023-04-24T16:07:55.553Z,0.98
2023-04-24T16:10:25.507Z,0.68
2023-04-24T16:12:56.240Z,0.63
2023-04-24T16:15:26.366Z,0.60
2023-04-24T16:17:58.309Z,0.40
2023-04-24T16:20:28.974Z,0.52
2023-04-24T16:22:59.514Z,0.50
2023-04-24T16:25:29.842Z,0.60
2023-04-24T16:28:00.336Z,0.80
2023-04-24T16:30:30.566Z,0.50
2023-04-24T16:33:07.764Z,0.40
2023-04-24T16:35:38.232Z,0.60
2023-04-24T16:38:08.185Z,0.63
2023-04-24T16:40:38.651Z,0.60
2023-04-24T16:43:09.076Z,0.55
2023-04-24T16:45:39.400Z,0.65
2023-04-24T16:48:11.833Z,0.88
2023-04-24T16:50:42.017Z,0.77
2023-04-24T16:53:12.667Z,0.40
2023-04-24T16:55:42.859Z,0.55
2023-04-24T16:58:12.833Z,0.45
2023-04-24T17:00:43.243Z,1.50
2023-04-24T17:03:16.368Z,0.65
2023-04-24T17:05:47.229Z,0.40
2023-04-24T17:08:17.660Z,0.60
2023-04-24T17:10:47.980Z,0.40
2023-04-24T17:13:18.310Z,0.80
2023-04-24T17:15:48.587Z,0.60
2023-04-24T17:18:20.929Z,0.55
2023-04-24T17:20:51.469Z,1.33
2023-04-24T17:23:22.836Z,0.52
2023-04-24T17:25:53.229Z,0.50
2023-04-24T17:28:30.063Z,0.60
2023-04-24T17:31:03.020Z,0.60
2023-04-24T17:33:35.377Z,0.63
2023-04-24T17:36:07.206Z,0.57
2023-04-24T17:38:37.638Z,0.57
2023-04-24T17:41:08.263Z,0.73
2023-04-24T17:43:38.397Z,0.52
2023-04-24T17:46:08.834Z,0.82
2023-04-24T17:48:42.503Z,0.60
2023-04-24T17:51:12.833Z,0.70
2023-04-24T17:53:43.176Z,0.88
2023-04-24T17:56:13.671Z,0.40
2023-04-24T17:58:44.095Z,0.80
2023-04-24T18:01:14.139Z,0.70
2023-04-24T18:03:47.239Z,0.77
2023-04-24T18:06:19.265Z,0.60
2023-04-24T18:08:50.069Z,0.45
2023-04-24T18:11:20.757Z,0.70
2023-04-24T18:13:51.886Z,0.50
2023-04-24T18:16:23.175Z,0.57
2023-04-24T18:18:56.458Z,0.57
2023-04-24T18:21:27.153Z,1.20
2023-04-24T18:24:00.693Z,0.80
2023-04-24T18:26:31.693Z,0.77
2023-04-24T18:29:01.412Z,0.70
2023-04-24T18:31:33.505Z,0.80
2023-04-24T18:34:05.479Z,0.60
2023-04-24T18:36:35.746Z,0.60
2023-04-24T18:39:06.203Z,0.55
2023-04-24T18:41:37.069Z,0.60
2023-04-24T18:44:07.201Z,0.70
2023-04-24T18:46:41.795Z,0.80
2023-04-24T18:49:14.193Z,0.45
2023-04-24T18:51:53.907Z,0.60
2023-04-24T18:54:24.757Z,0.52
2023-04-24T18:56:56.245Z,0.60
2023-04-24T18:59:27.836Z,0.65
2023-04-24T19:01:58.387Z,0.60
2023-04-24T19:04:31.788Z,0.55
2023-04-24T19:07:01.670Z,0.60
2023-04-24T19:09:32.163Z,0.60
2023-04-24T19:12:03.324Z,0.60
2023-04-24T19:14:33.547Z,0.43
2023-04-24T19:17:10.143Z,0.50
2023-04-24T19:19:42.581Z,0.82
2023-04-24T19:22:13.093Z,0.52
2023-04-24T19:24:43.529Z,0.70
2023-04-24T19:27:14.281Z,0.57
2023-04-24T19:29:44.343Z,0.65
2023-04-24T19:32:14.937Z,0.75
2023-04-24T19:34:47.515Z,0.60
2023-04-24T19:37:19.704Z,0.50
2023-04-24T19:39:50.152Z,0.60
2023-04-24T19:42:28.505Z,0.65
2023-04-24T19:45:07.182Z,0.82
2023-04-24T19:47:37.395Z,1.40
2023-04-24T19:50:10.962Z,0.57
2023-04-24T19:52:41.820Z,0.60
2023-04-24T19:55:12.874Z,0.82
2023-04-24T19:57:42.974Z,0.65
2023-04-24T20:00:15.318Z,0.60
2023-04-24T20:02:45.688Z,0.65
2023-04-24T20:05:17.916Z,0.80
2023-04-24T20:07:48.405Z,0.63
2023-04-24T20:10:19.050Z,0.63
2023-04-24T20:12:48.710Z,0.82
2023-04-24T20:15:18.637Z,0.70
2023-04-24T20:17:49.180Z,1.00
2023-04-24T20:20:21.172Z,0.90
2023-04-24T20:22:51.514Z,0.80
2023-04-24T20:25:21.952Z,1.20
2023-04-24T20:27:52.474Z,1.23
2023-04-24T20:30:22.967Z,0.60
2023-04-24T20:32:53.398Z,0.75
2023-04-24T20:35:25.500Z,0.57
2023-04-24T20:37:55.459Z,0.75
2023-04-24T20:40:26.755Z,0.80
2023-04-24T20:42:58.048Z,0.90
2023-04-24T20:45:28.722Z,0.68
2023-04-24T20:47:58.656Z,0.73
2023-04-24T20:50:31.003Z,0.95
2023-04-24T20:53:01.324Z,0.88
2023-04-24T20:55:31.563Z,0.70
2023-04-24T20:58:02.557Z,1.45
2023-04-24T21:00:32.818Z,0.75
2023-04-24T21:03:03.394Z,1.73
2023-04-24T21:05:35.391Z,2.05
2023-04-24T21:08:05.717Z,0.70
2023-04-24T21:10:35.381Z,1.00
2023-04-24T21:13:05.025Z,0.80
2023-04-24T21:15:36.278Z,1.25
2023-04-24T21:18:07.947Z,0.70
2023-04-24T21:20:40.377Z,0.80
2023-04-24T21:23:10.789Z,0.68
2023-04-24T21:25:41.685Z,0.80
2023-04-24T21:28:11.844Z,1.02
2023-04-24T21:30:42.341Z,0.70
2023-04-24T21:33:13.032Z,0.80
2023-04-24T21:35:44.584Z,0.85
2023-04-24T21:38:15.005Z,0.60
2023-04-24T21:40:44.831Z,0.73
2023-04-24T21:43:14.859Z,0.75
2023-04-24T21:45:45.495Z,0.82
2023-04-24T21:48:15.983Z,0.80
2023-04-24T21:50:48.363Z,1.08
2023-04-24T21:53:18.615Z,0.70
2023-04-24T21:55:49.283Z,0.73
2023-04-24T21:58:19.713Z,1.00
2023-04-24T22:00:49.566Z,0.77
2023-04-24T22:03:19.734Z,1.13
2023-04-24T22:05:52.005Z,1.00
2023-04-24T22:08:22.355Z,1.35
2023-04-24T22:10:55.168Z,1.02
2023-04-24T22:13:25.598Z,1.17
2023-04-24T22:15:55.457Z,1.40
2023-04-24T22:18:33.344Z,3.30
2023-04-24T22:21:12.618Z,1.23
2023-04-24T22:23:43.007Z,1.13
2023-04-24T22:26:13.549Z,1.40
2023-04-24T22:28:43.674Z,1.02
2023-04-24T22:31:14.213Z,1.30
2023-04-24T22:33:44.621Z,1.30
2023-04-24T22:36:17.317Z,1.25
2023-04-24T22:38:47.500Z,1.45
2023-04-24T22:41:17.890Z,1.27
2023-04-24T22:43:48.783Z,1.27
2023-04-24T22:46:19.446Z,1.77
2023-04-24T22:48:49.579Z,1.50
2023-04-24T22:51:21.773Z,1.70
2023-04-24T22:53:52.091Z,1.17
2023-04-24T22:56:22.175Z,1.30
2023-04-24T22:58:52.551Z,1.30
2023-04-24T23:01:23.269Z,1.70
2023-04-24T23:03:54.049Z,1.45
2023-04-24T23:06:27.166Z,1.73
2023-04-24T23:08:57.484Z,1.70
2023-04-24T23:11:27.870Z,1.80
2023-04-24T23:13:58.304Z,1.77
2023-04-24T23:16:28.616Z,1.80
2023-04-24T23:18:59.599Z,1.83
2023-04-24T23:21:31.548Z,2.03
2023-04-24T23:24:02.052Z,2.05
2023-04-24T23:26:32.314Z,1.85
2023-04-24T23:29:02.506Z,1.98
2023-04-24T23:31:32.950Z,1.92
2023-04-24T23:34:03.174Z,1.90
2023-04-24T23:36:36.046Z,2.20
2023-04-24T23:39:07.296Z,2.20
2023-04-24T23:41:37.967Z,2.47
2023-04-24T23:44:08.482Z,2.50
2023-04-24T23:46:38.882Z,2.40
2023-04-24T23:49:09.603Z,2.65
2023-04-24T23:51:41.964Z,2.90
2023-04-24T23:54:13.294Z,2.78
2023-04-24T23:56:43.037Z,3.08
2023-04-24T23:59:12.660Z,2.83
